sensor_id;sensor_type;location;lat;lon;timestamp;P1;durP1;ratioP1;P2;durP2;ratioP2
20095;SDS011;10207;50.942;6.900;2022-07-21T00:02:02;12.70;;;8.70;;
20095;SDS011;10207;50.942;6.900;2022-07-21T00:04:28;12.02;;;9.93;;
20095;SDS011;10207;50.942;6.900;2022-07-21T00:06:54;13.43;;;9.18;;
20095;SDS011;10207;50.942;6.900;2022-07-21T00:09:20;14.00;;;10.00;;
20095;SDS011;10207;50.942;6.900;2022-07-21T00:11:46;14.25;;;10.65;;
20095;SDS011;10207;50.942;6.900;2022-07-21T00:14:12;15.35;;;10.35;;
20095;SDS011;10207;50.942;6.900;2022-07-21T00:16:38;13.10;;;9.65;;
20095;SDS011;10207;50.942;6.900;2022-07-21T00:19:04;12.85;;;9.63;;
20095;SDS011;10207;50.942;6.900;2022-07-21T00:21:30;17.30;;;10.45;;
20095;SDS011;10207;50.942;6.900;2022-07-21T00:23:56;15.27;;;10.77;;
20095;SDS011;10207;50.942;6.900;2022-07-21T00:26:22;13.48;;;9.13;;
20095;SDS011;10207;50.942;6.900;2022-07-21T00:28:48;15.65;;;10.13;;
20095;SDS011;10207;50.942;6.900;2022-07-21T00:31:14;15.75;;;10.88;;
20095;SDS011;10207;50.942;6.900;2022-07-21T00:33:39;19.40;;;10.93;;
20095;SDS011;10207;50.942;6.900;2022-07-21T00:36:05;19.25;;;12.48;;
20095;SDS011;10207;50.942;6.900;2022-07-21T00:38:31;18.33;;;12.15;;
20095;SDS011;10207;50.942;6.900;2022-07-21T00:40:57;15.93;;;10.10;;
20095;SDS011;10207;50.942;6.900;2022-07-21T00:43:23;18.63;;;9.50;;
20095;SDS011;10207;50.942;6.900;2022-07-21T00:45:51;18.45;;;10.63;;
20095;SDS011;10207;50.942;6.900;2022-07-21T00:48:17;14.20;;;10.30;;
20095;SDS011;10207;50.942;6.900;2022-07-21T00:50:43;15.98;;;11.52;;
20095;SDS011;10207;50.942;6.900;2022-07-21T00:53:09;17.63;;;11.90;;
20095;SDS011;10207;50.942;6.900;2022-07-21T00:55:34;14.85;;;11.43;;
20095;SDS011;10207;50.942;6.900;2022-07-21T00:58:00;17.65;;;11.73;;
20095;SDS011;10207;50.942;6.900;2022-07-21T01:00:27;21.33;;;11.15;;
20095;SDS011;10207;50.942;6.900;2022-07-21T01:02:54;18.88;;;12.73;;
20095;SDS011;10207;50.942;6.900;2022-07-21T01:05:20;17.58;;;11.10;;
20095;SDS011;10207;50.942;6.900;2022-07-21T01:07:51;23.73;;;12.73;;
20095;SDS011;10207;50.942;6.900;2022-07-21T01:10:18;16.58;;;11.80;;
20095;SDS011;10207;50.942;6.900;2022-07-21T01:12:44;16.63;;;11.25;;
20095;SDS011;10207;50.942;6.900;2022-07-21T01:15:11;19.25;;;11.90;;
20095;SDS011;10207;50.942;6.900;2022-07-21T01:17:37;15.48;;;10.82;;
20095;SDS011;10207;50.942;6.900;2022-07-21T01:20:07;15.20;;;11.23;;
20095;SDS011;10207;50.942;6.900;2022-07-21T01:22:34;16.42;;;11.50;;
20095;SDS011;10207;50.942;6.900;2022-07-21T01:25:00;21.08;;;11.13;;
20095;SDS011;10207;50.942;6.900;2022-07-21T01:27:26;18.70;;;11.88;;
20095;SDS011;10207;50.942;6.900;2022-07-21T01:29:53;16.85;;;11.00;;
20095;SDS011;10207;50.942;6.900;2022-07-21T01:32:18;15.68;;;10.00;;
20095;SDS011;10207;50.942;6.900;2022-07-21T01:34:44;17.98;;;11.27;;
20095;SDS011;10207;50.942;6.900;2022-07-21T01:37:10;17.23;;;11.77;;
20095;SDS011;10207;50.942;6.900;2022-07-21T01:39:36;19.23;;;12.93;;
20095;SDS011;10207;50.942;6.900;2022-07-21T01:42:20;20.55;;;11.70;;
20095;SDS011;10207;50.942;6.900;2022-07-21T01:44:46;16.95;;;12.27;;
20095;SDS011;10207;50.942;6.900;2022-07-21T01:47:11;18.83;;;12.50;;
20095;SDS011;10207;50.942;6.900;2022-07-21T01:49:37;16.17;;;11.30;;
20095;SDS011;10207;50.942;6.900;2022-07-21T01:52:03;22.00;;;11.57;;
20095;SDS011;10207;50.942;6.900;2022-07-21T01:54:29;18.20;;;12.93;;
20095;SDS011;10207;50.942;6.900;2022-07-21T01:56:54;17.95;;;12.65;;
20095;SDS011;10207;50.942;6.900;2022-07-21T01:59:20;17.65;;;12.73;;
20095;SDS011;10207;50.942;6.900;2022-07-21T02:01:46;16.67;;;12.73;;
20095;SDS011;10207;50.942;6.900;2022-07-21T02:04:12;22.75;;;13.82;;
20095;SDS011;10207;50.942;6.900;2022-07-21T02:06:38;19.67;;;12.85;;
20095;SDS011;10207;50.942;6.900;2022-07-21T02:09:04;22.48;;;13.90;;
20095;SDS011;10207;50.942;6.900;2022-07-21T02:11:32;21.35;;;12.65;;
20095;SDS011;10207;50.942;6.900;2022-07-21T02:13:58;22.45;;;15.15;;
20095;SDS011;10207;50.942;6.900;2022-07-21T02:16:23;19.77;;;13.23;;
20095;SDS011;10207;50.942;6.900;2022-07-21T02:18:49;20.40;;;14.15;;
20095;SDS011;10207;50.942;6.900;2022-07-21T02:21:15;18.75;;;13.02;;
20095;SDS011;10207;50.942;6.900;2022-07-21T02:23:41;15.23;;;11.70;;
20095;SDS011;10207;50.942;6.900;2022-07-21T02:26:07;17.38;;;10.90;;
20095;SDS011;10207;50.942;6.900;2022-07-21T02:28:33;16.55;;;11.70;;
20095;SDS011;10207;50.942;6.900;2022-07-21T02:30:58;19.73;;;13.10;;
20095;SDS011;10207;50.942;6.900;2022-07-21T02:33:24;20.38;;;14.15;;
20095;SDS011;10207;50.942;6.900;2022-07-21T02:35:50;22.35;;;14.88;;
20095;SDS011;10207;50.942;6.900;2022-07-21T02:38:15;24.35;;;16.27;;
20095;SDS011;10207;50.942;6.900;2022-07-21T02:40:41;26.45;;;16.15;;
20095;SDS011;10207;50.942;6.900;2022-07-21T02:43:07;24.45;;;17.45;;
20095;SDS011;10207;50.942;6.900;2022-07-21T02:45:33;26.60;;;17.27;;
20095;SDS011;10207;50.942;6.900;2022-07-21T02:48:06;27.38;;;18.63;;
20095;SDS011;10207;50.942;6.900;2022-07-21T02:50:34;25.05;;;17.58;;
20095;SDS011;10207;50.942;6.900;2022-07-21T02:53:04;31.27;;;17.83;;
20095;SDS011;10207;50.942;6.900;2022-07-21T02:55:31;27.95;;;19.00;;
20095;SDS011;10207;50.942;6.900;2022-07-21T03:00:33;29.23;;;18.52;;
20095;SDS011;10207;50.942;6.900;2022-07-21T03:02:59;27.60;;;18.10;;
20095;SDS011;10207;50.942;6.900;2022-07-21T03:05:25;25.05;;;17.33;;
20095;SDS011;10207;50.942;6.900;2022-07-21T03:07:50;25.75;;;16.48;;
20095;SDS011;10207;50.942;6.900;2022-07-21T03:10:16;25.38;;;17.77;;
20095;SDS011;10207;50.942;6.900;2022-07-21T03:12:42;23.55;;;16.98;;
20095;SDS011;10207;50.942;6.900;2022-07-21T03:15:08;25.15;;;16.77;;
20095;SDS011;10207;50.942;6.900;2022-07-21T03:17:34;28.55;;;18.48;;
20095;SDS011;10207;50.942;6.900;2022-07-21T03:20:01;27.52;;;17.33;;
20095;SDS011;10207;50.942;6.900;2022-07-21T03:22:28;29.58;;;18.77;;
20095;SDS011;10207;50.942;6.900;2022-07-21T03:24:54;26.08;;;17.73;;
20095;SDS011;10207;50.942;6.900;2022-07-21T03:27:19;29.20;;;18.88;;
20095;SDS011;10207;50.942;6.900;2022-07-21T03:29:45;29.00;;;19.88;;
20095;SDS011;10207;50.942;6.900;2022-07-21T03:32:11;31.88;;;19.20;;
20095;SDS011;10207;50.942;6.900;2022-07-21T03:34:37;30.20;;;20.38;;
20095;SDS011;10207;50.942;6.900;2022-07-21T03:37:03;29.67;;;19.02;;
20095;SDS011;10207;50.942;6.900;2022-07-21T03:39:30;32.45;;;19.50;;
20095;SDS011;10207;50.942;6.900;2022-07-21T03:41:55;29.27;;;19.88;;
20095;SDS011;10207;50.942;6.900;2022-07-21T03:44:21;29.67;;;19.33;;
20095;SDS011;10207;50.942;6.900;2022-07-21T03:46:47;29.10;;;19.17;;
20095;SDS011;10207;50.942;6.900;2022-07-21T03:49:12;30.35;;;19.35;;
20095;SDS011;10207;50.942;6.900;2022-07-21T03:51:38;29.73;;;18.40;;
20095;SDS011;10207;50.942;6.900;2022-07-21T03:54:04;26.23;;;17.98;;
20095;SDS011;10207;50.942;6.900;2022-07-21T03:56:30;22.75;;;16.35;;
20095;SDS011;10207;50.942;6.900;2022-07-21T03:58:56;23.83;;;15.50;;
20095;SDS011;10207;50.942;6.900;2022-07-21T04:01:22;21.90;;;14.73;;
20095;SDS011;10207;50.942;6.900;2022-07-21T04:03:48;27.27;;;16.60;;
20095;SDS011;10207;50.942;6.900;2022-07-21T04:06:14;21.38;;;15.13;;
20095;SDS011;10207;50.942;6.900;2022-07-21T04:08:40;22.00;;;15.00;;
20095;SDS011;10207;50.942;6.900;2022-07-21T04:11:06;20.58;;;15.18;;
20095;SDS011;10207;50.942;6.900;2022-07-21T04:13:32;18.92;;;12.98;;
20095;SDS011;10207;50.942;6.900;2022-07-21T04:15:57;19.38;;;13.48;;
20095;SDS011;10207;50.942;6.900;2022-07-21T04:18:23;17.50;;;12.00;;
20095;SDS011;10207;50.942;6.900;2022-07-21T04:20:49;19.83;;;13.30;;
20095;SDS011;10207;50.942;6.900;2022-07-21T04:23:15;18.63;;;13.13;;
20095;SDS011;10207;50.942;6.900;2022-07-21T04:25:40;19.10;;;13.85;;
20095;SDS011;10207;50.942;6.900;2022-07-21T04:28:06;17.65;;;13.93;;
20095;SDS011;10207;50.942;6.900;2022-07-21T04:30:34;21.13;;;13.82;;
20095;SDS011;10207;50.942;6.900;2022-07-21T04:32:59;19.05;;;13.70;;
20095;SDS011;10207;50.942;6.900;2022-07-21T04:35:25;16.60;;;12.98;;
20095;SDS011;10207;50.942;6.900;2022-07-21T04:37:51;17.20;;;12.88;;
20095;SDS011;10207;50.942;6.900;2022-07-21T04:40:17;18.08;;;12.00;;
20095;SDS011;10207;50.942;6.900;2022-07-21T04:42:42;16.63;;;11.57;;
20095;SDS011;10207;50.942;6.900;2022-07-21T04:45:09;16.67;;;11.50;;
20095;SDS011;10207;50.942;6.900;2022-07-21T04:47:42;19.38;;;11.60;;
20095;SDS011;10207;50.942;6.900;2022-07-21T04:50:08;19.42;;;12.02;;
20095;SDS011;10207;50.942;6.900;2022-07-21T04:52:34;14.68;;;11.77;;
20095;SDS011;10207;50.942;6.900;2022-07-21T04:55:01;13.77;;;11.63;;
20095;SDS011;10207;50.942;6.900;2022-07-21T04:57:26;17.42;;;11.68;;
20095;SDS011;10207;50.942;6.900;2022-07-21T04:59:52;15.68;;;11.52;;
20095;SDS011;10207;50.942;6.900;2022-07-21T05:02:18;16.30;;;12.30;;
20095;SDS011;10207;50.942;6.900;2022-07-21T05:04:43;19.38;;;12.45;;
20095;SDS011;10207;50.942;6.900;2022-07-21T05:07:09;16.05;;;12.07;;
20095;SDS011;10207;50.942;6.900;2022-07-21T05:09:35;18.52;;;12.10;;
20095;SDS011;10207;50.942;6.900;2022-07-21T05:12:01;16.02;;;10.13;;
20095;SDS011;10207;50.942;6.900;2022-07-21T05:14:28;15.90;;;11.68;;
20095;SDS011;10207;50.942;6.900;2022-07-21T05:16:55;21.77;;;12.57;;
20095;SDS011;10207;50.942;6.900;2022-07-21T05:19:20;12.68;;;9.80;;
20095;SDS011;10207;50.942;6.900;2022-07-21T05:21:46;15.45;;;10.05;;
20095;SDS011;10207;50.942;6.900;2022-07-21T05:24:12;15.38;;;10.77;;
20095;SDS011;10207;50.942;6.900;2022-07-21T05:26:38;12.68;;;10.15;;
20095;SDS011;10207;50.942;6.900;2022-07-21T05:29:04;13.25;;;9.63;;
20095;SDS011;10207;50.942;6.900;2022-07-21T05:31:30;12.85;;;9.70;;
20095;SDS011;10207;50.942;6.900;2022-07-21T05:33:55;13.27;;;9.95;;
20095;SDS011;10207;50.942;6.900;2022-07-21T05:36:21;12.32;;;9.82;;
20095;SDS011;10207;50.942;6.900;2022-07-21T05:38:47;14.95;;;10.20;;
20095;SDS011;10207;50.942;6.900;2022-07-21T05:41:13;11.40;;;9.82;;
20095;SDS011;10207;50.942;6.900;2022-07-21T05:43:38;14.13;;;9.52;;
20095;SDS011;10207;50.942;6.900;2022-07-21T05:46:04;11.52;;;9.15;;
20095;SDS011;10207;50.942;6.900;2022-07-21T05:48:30;12.38;;;9.45;;
20095;SDS011;10207;50.942;6.900;2022-07-21T05:50:56;13.15;;;9.27;;
20095;SDS011;10207;50.942;6.900;2022-07-21T05:53:21;13.60;;;10.05;;
20095;SDS011;10207;50.942;6.900;2022-07-21T05:55:47;13.15;;;9.65;;
20095;SDS011;10207;50.942;6.900;2022-07-21T05:58:13;14.27;;;10.85;;
20095;SDS011;10207;50.942;6.900;2022-07-21T06:00:39;13.93;;;10.40;;
20095;SDS011;10207;50.942;6.900;2022-07-21T06:03:05;18.02;;;9.55;;
20095;SDS011;10207;50.942;6.900;2022-07-21T06:05:31;13.95;;;10.25;;
20095;SDS011;10207;50.942;6.900;2022-07-21T06:07:56;11.52;;;8.93;;
20095;SDS011;10207;50.942;6.900;2022-07-21T06:10:22;11.13;;;7.90;;
20095;SDS011;10207;50.942;6.900;2022-07-21T06:12:48;9.50;;;7.18;;
20095;SDS011;10207;50.942;6.900;2022-07-21T06:15:15;9.40;;;6.30;;
20095;SDS011;10207;50.942;6.900;2022-07-21T06:17:41;9.35;;;6.40;;
20095;SDS011;10207;50.942;6.900;2022-07-21T06:20:07;7.28;;;4.72;;
20095;SDS011;10207;50.942;6.900;2022-07-21T06:22:34;7.35;;;5.15;;
20095;SDS011;10207;50.942;6.900;2022-07-21T06:25:00;8.73;;;5.10;;
20095;SDS011;10207;50.942;6.900;2022-07-21T06:27:28;6.70;;;4.30;;
20095;SDS011;10207;50.942;6.900;2022-07-21T06:29:54;8.85;;;4.22;;
20095;SDS011;10207;50.942;6.900;2022-07-21T06:32:22;4.80;;;3.63;;
20095;SDS011;10207;50.942;6.900;2022-07-21T06:34:48;4.90;;;3.50;;
20095;SDS011;10207;50.942;6.900;2022-07-21T06:37:15;8.35;;;3.35;;
20095;SDS011;10207;50.942;6.900;2022-07-21T06:39:40;6.35;;;3.50;;
20095;SDS011;10207;50.942;6.900;2022-07-21T06:42:07;5.43;;;3.90;;
20095;SDS011;10207;50.942;6.900;2022-07-21T06:44:35;6.30;;;3.58;;
20095;SDS011;10207;50.942;6.900;2022-07-21T06:47:01;8.77;;;3.55;;
20095;SDS011;10207;50.942;6.900;2022-07-21T06:49:30;7.35;;;4.07;;
20095;SDS011;10207;50.942;6.900;2022-07-21T06:51:56;4.30;;;3.13;;
20095;SDS011;10207;50.942;6.900;2022-07-21T06:54:22;8.13;;;2.92;;
20095;SDS011;10207;50.942;6.900;2022-07-21T06:56:48;4.30;;;2.60;;
20095;SDS011;10207;50.942;6.900;2022-07-21T06:59:13;7.90;;;2.97;;
20095;SDS011;10207;50.942;6.900;2022-07-21T07:01:39;5.82;;;3.00;;
20095;SDS011;10207;50.942;6.900;2022-07-21T07:04:05;3.70;;;2.55;;
20095;SDS011;10207;50.942;6.900;2022-07-21T07:06:31;5.18;;;2.72;;
20095;SDS011;10207;50.942;6.900;2022-07-21T07:08:57;4.03;;;3.00;;
20095;SDS011;10207;50.942;6.900;2022-07-21T07:11:23;5.60;;;2.60;;
20095;SDS011;10207;50.942;6.900;2022-07-21T07:13:48;5.65;;;3.10;;
20095;SDS011;10207;50.942;6.900;2022-07-21T07:16:14;4.45;;;2.80;;
20095;SDS011;10207;50.942;6.900;2022-07-21T07:18:40;7.05;;;2.92;;
20095;SDS011;10207;50.942;6.900;2022-07-21T07:21:06;5.18;;;2.53;;
20095;SDS011;10207;50.942;6.900;2022-07-21T07:23:31;4.25;;;2.13;;
20095;SDS011;10207;50.942;6.900;2022-07-21T07:25:57;3.17;;;2.53;;
20095;SDS011;10207;50.942;6.900;2022-07-21T07:28:23;6.53;;;3.33;;
20095;SDS011;10207;50.942;6.900;2022-07-21T07:30:50;3.47;;;2.38;;
20095;SDS011;10207;50.942;6.900;2022-07-21T07:33:15;2.95;;;2.17;;
20095;SDS011;10207;50.942;6.900;2022-07-21T07:35:41;4.85;;;2.65;;
20095;SDS011;10207;50.942;6.900;2022-07-21T07:38:07;3.13;;;2.30;;
20095;SDS011;10207;50.942;6.900;2022-07-21T07:40:33;4.13;;;2.45;;
20095;SDS011;10207;50.942;6.900;2022-07-21T07:42:58;4.32;;;2.67;;
20095;SDS011;10207;50.942;6.900;2022-07-21T07:45:24;10.55;;;3.35;;
20095;SDS011;10207;50.942;6.900;2022-07-21T07:47:51;4.00;;;2.40;;
20095;SDS011;10207;50.942;6.900;2022-07-21T07:50:18;7.00;;;3.42;;
20095;SDS011;10207;50.942;6.900;2022-07-21T07:52:44;3.42;;;2.78;;
20095;SDS011;10207;50.942;6.900;2022-07-21T07:55:10;4.10;;;2.90;;
20095;SDS011;10207;50.942;6.900;2022-07-21T07:57:37;5.47;;;3.30;;
20095;SDS011;10207;50.942;6.900;2022-07-21T08:00:04;4.60;;;2.72;;
20095;SDS011;10207;50.942;6.900;2022-07-21T08:02:37;7.43;;;3.88;;
20095;SDS011;10207;50.942;6.900;2022-07-21T08:05:04;7.72;;;3.17;;
20095;SDS011;10207;50.942;6.900;2022-07-21T08:07:29;4.78;;;3.05;;
20095;SDS011;10207;50.942;6.900;2022-07-21T08:09:55;6.68;;;3.50;;
20095;SDS011;10207;50.942;6.900;2022-07-21T08:12:21;6.07;;;3.63;;
20095;SDS011;10207;50.942;6.900;2022-07-21T08:14:48;5.07;;;3.10;;
20095;SDS011;10207;50.942;6.900;2022-07-21T08:17:13;4.30;;;2.83;;
20095;SDS011;10207;50.942;6.900;2022-07-21T08:19:39;4.70;;;3.00;;
20095;SDS011;10207;50.942;6.900;2022-07-21T08:22:05;3.60;;;2.90;;
20095;SDS011;10207;50.942;6.900;2022-07-21T08:24:31;3.53;;;2.60;;
20095;SDS011;10207;50.942;6.900;2022-07-21T08:26:57;5.55;;;3.38;;
20095;SDS011;10207;50.942;6.900;2022-07-21T08:29:22;5.47;;;2.95;;
20095;SDS011;10207;50.942;6.900;2022-07-21T08:31:48;5.63;;;3.45;;
20095;SDS011;10207;50.942;6.900;2022-07-21T08:34:14;4.55;;;2.95;;
20095;SDS011;10207;50.942;6.900;2022-07-21T08:36:39;3.60;;;2.90;;
20095;SDS011;10207;50.942;6.900;2022-07-21T08:39:05;8.00;;;3.40;;
20095;SDS011;10207;50.942;6.900;2022-07-21T08:41:31;6.28;;;2.97;;
20095;SDS011;10207;50.942;6.900;2022-07-21T08:43:57;9.52;;;3.40;;
20095;SDS011;10207;50.942;6.900;2022-07-21T08:46:23;4.90;;;3.05;;
20095;SDS011;10207;50.942;6.900;2022-07-21T08:48:50;5.57;;;3.17;;
20095;SDS011;10207;50.942;6.900;2022-07-21T08:51:16;6.38;;;3.60;;
20095;SDS011;10207;50.942;6.900;2022-07-21T08:53:45;6.40;;;3.63;;
20095;SDS011;10207;50.942;6.900;2022-07-21T08:56:11;5.93;;;3.45;;
20095;SDS011;10207;50.942;6.900;2022-07-21T08:58:37;4.38;;;3.53;;
20095;SDS011;10207;50.942;6.900;2022-07-21T09:01:03;7.22;;;3.60;;
20095;SDS011;10207;50.942;6.900;2022-07-21T09:03:29;6.05;;;3.92;;
20095;SDS011;10207;50.942;6.900;2022-07-21T09:05:59;8.30;;;3.53;;
20095;SDS011;10207;50.942;6.900;2022-07-21T09:08:29;5.65;;;3.10;;
20095;SDS011;10207;50.942;6.900;2022-07-21T09:11:06;5.90;;;3.92;;
20095;SDS011;10207;50.942;6.900;2022-07-21T09:13:32;4.82;;;3.58;;
20095;SDS011;10207;50.942;6.900;2022-07-21T09:15:58;6.80;;;3.78;;
20095;SDS011;10207;50.942;6.900;2022-07-21T09:18:25;3.40;;;2.70;;
20095;SDS011;10207;50.942;6.900;2022-07-21T09:20:52;6.30;;;3.17;;
20095;SDS011;10207;50.942;6.900;2022-07-21T09:23:20;5.85;;;2.90;;
20095;SDS011;10207;50.942;6.900;2022-07-21T09:25:47;5.40;;;3.53;;
20095;SDS011;10207;50.942;6.900;2022-07-21T09:33:21;6.82;;;2.88;;
20095;SDS011;10207;50.942;6.900;2022-07-21T09:36:30;4.13;;;2.17;;
20095;SDS011;10207;50.942;6.900;2022-07-21T09:38:38;5.63;;;2.90;;
20095;SDS011;10207;50.942;6.900;2022-07-21T09:41:11;4.63;;;2.35;;
20095;SDS011;10207;50.942;6.900;2022-07-21T09:43:42;5.53;;;2.90;;
20095;SDS011;10207;50.942;6.900;2022-07-21T09:46:12;4.18;;;2.92;;
20095;SDS011;10207;50.942;6.900;2022-07-21T09:48:39;4.25;;;2.28;;
20095;SDS011;10207;50.942;6.900;2022-07-21T09:51:19;6.53;;;2.90;;
20095;SDS011;10207;50.942;6.900;2022-07-21T09:56:20;7.18;;;3.25;;
20095;SDS011;10207;50.942;6.900;2022-07-21T09:58:46;6.18;;;3.13;;
20095;SDS011;10207;50.942;6.900;2022-07-21T10:01:12;5.15;;;3.28;;
20095;SDS011;10207;50.942;6.900;2022-07-21T10:03:38;6.45;;;3.13;;
20095;SDS011;10207;50.942;6.900;2022-07-21T10:06:04;4.65;;;2.80;;
20095;SDS011;10207;50.942;6.900;2022-07-21T10:08:32;6.43;;;2.85;;
20095;SDS011;10207;50.942;6.900;2022-07-21T10:10:58;5.45;;;2.65;;
20095;SDS011;10207;50.942;6.900;2022-07-21T10:13:24;6.38;;;3.00;;
20095;SDS011;10207;50.942;6.900;2022-07-21T10:15:50;6.03;;;3.00;;
20095;SDS011;10207;50.942;6.900;2022-07-21T10:18:19;5.20;;;2.83;;
20095;SDS011;10207;50.942;6.900;2022-07-21T10:20:48;3.70;;;2.45;;
20095;SDS011;10207;50.942;6.900;2022-07-21T10:25:43;5.80;;;2.40;;
20095;SDS011;10207;50.942;6.900;2022-07-21T10:30:52;4.95;;;2.47;;
20095;SDS011;10207;50.942;6.900;2022-07-21T10:36:06;9.10;;;2.90;;
20095;SDS011;10207;50.942;6.900;2022-07-21T10:38:32;5.18;;;2.92;;
20095;SDS011;10207;50.942;6.900;2022-07-21T10:40:59;5.40;;;2.80;;
20095;SDS011;10207;50.942;6.900;2022-07-21T10:45:53;4.20;;;2.65;;
20095;SDS011;10207;50.942;6.900;2022-07-21T10:48:45;5.35;;;3.10;;
20095;SDS011;10207;50.942;6.900;2022-07-21T10:51:09;7.63;;;3.40;;
20095;SDS011;10207;50.942;6.900;2022-07-21T10:53:36;7.07;;;3.03;;
20095;SDS011;10207;50.942;6.900;2022-07-21T10:56:02;9.20;;;3.90;;
20095;SDS011;10207;50.942;6.900;2022-07-21T10:58:28;7.35;;;4.22;;
20095;SDS011;10207;50.942;6.900;2022-07-21T11:00:57;5.05;;;3.97;;
20095;SDS011;10207;50.942;6.900;2022-07-21T11:11:09;9.43;;;5.80;;
20095;SDS011;10207;50.942;6.900;2022-07-21T11:16:20;10.43;;;4.90;;
20095;SDS011;10207;50.942;6.900;2022-07-21T11:18:45;8.50;;;5.95;;
20095;SDS011;10207;50.942;6.900;2022-07-21T11:21:12;6.88;;;5.57;;
20095;SDS011;10207;50.942;6.900;2022-07-21T11:23:39;10.88;;;6.30;;
20095;SDS011;10207;50.942;6.900;2022-07-21T11:26:05;9.00;;;6.50;;
20095;SDS011;10207;50.942;6.900;2022-07-21T11:28:31;10.65;;;6.88;;
20095;SDS011;10207;50.942;6.900;2022-07-21T11:31:10;10.50;;;7.55;;
20095;SDS011;10207;50.942;6.900;2022-07-21T11:33:40;12.07;;;7.72;;
20095;SDS011;10207;50.942;6.900;2022-07-21T11:36:06;12.52;;;8.05;;
20095;SDS011;10207;50.942;6.900;2022-07-21T11:38:33;12.07;;;8.98;;
20095;SDS011;10207;50.942;6.900;2022-07-21T11:41:12;12.80;;;9.30;;
20095;SDS011;10207;50.942;6.900;2022-07-21T11:43:39;12.50;;;8.15;;
20095;SDS011;10207;50.942;6.900;2022-07-21T11:46:05;15.00;;;9.65;;
20095;SDS011;10207;50.942;6.900;2022-07-21T11:48:31;15.55;;;9.07;;
20095;SDS011;10207;50.942;6.900;2022-07-21T11:51:01;18.35;;;10.48;;
20095;SDS011;10207;50.942;6.900;2022-07-21T11:53:29;16.35;;;9.07;;
20095;SDS011;10207;50.942;6.900;2022-07-21T11:55:55;12.32;;;9.38;;
20095;SDS011;10207;50.942;6.900;2022-07-21T11:58:21;16.15;;;10.05;;
20095;SDS011;10207;50.942;6.900;2022-07-21T12:00:48;15.48;;;10.23;;
20095;SDS011;10207;50.942;6.900;2022-07-21T12:03:14;15.55;;;11.00;;
20095;SDS011;10207;50.942;6.900;2022-07-21T12:05:40;18.20;;;11.43;;
20095;SDS011;10207;50.942;6.900;2022-07-21T12:08:06;18.98;;;11.73;;
20095;SDS011;10207;50.942;6.900;2022-07-21T12:10:33;17.25;;;13.07;;
20095;SDS011;10207;50.942;6.900;2022-07-21T12:13:01;17.00;;;13.13;;
20095;SDS011;10207;50.942;6.900;2022-07-21T12:15:28;16.98;;;12.48;;
20095;SDS011;10207;50.942;6.900;2022-07-21T12:17:58;19.73;;;12.55;;
20095;SDS011;10207;50.942;6.900;2022-07-21T12:20:25;17.60;;;12.57;;
20095;SDS011;10207;50.942;6.900;2022-07-21T12:22:52;15.88;;;12.68;;
20095;SDS011;10207;50.942;6.900;2022-07-21T12:25:28;20.10;;;13.90;;
20095;SDS011;10207;50.942;6.900;2022-07-21T12:27:55;23.30;;;14.93;;
20095;SDS011;10207;50.942;6.900;2022-07-21T12:33:40;17.35;;;14.57;;
20095;SDS011;10207;50.942;6.900;2022-07-21T12:36:06;22.80;;;15.00;;
20095;SDS011;10207;50.942;6.900;2022-07-21T12:38:37;20.70;;;14.52;;
20095;SDS011;10207;50.942;6.900;2022-07-21T12:41:03;20.35;;;14.18;;
20095;SDS011;10207;50.942;6.900;2022-07-21T12:43:29;21.73;;;15.25;;
20095;SDS011;10207;50.942;6.900;2022-07-21T12:45:59;22.73;;;14.50;;
20095;SDS011;10207;50.942;6.900;2022-07-21T12:48:29;24.05;;;14.85;;
20095;SDS011;10207;50.942;6.900;2022-07-21T12:50:59;23.48;;;14.32;;
20095;SDS011;10207;50.942;6.900;2022-07-21T12:53:25;22.63;;;15.73;;
20095;SDS011;10207;50.942;6.900;2022-07-21T12:55:51;18.73;;;14.68;;
20095;SDS011;10207;50.942;6.900;2022-07-21T12:58:17;23.55;;;15.35;;
20095;SDS011;10207;50.942;6.900;2022-07-21T13:00:42;22.88;;;15.10;;
20095;SDS011;10207;50.942;6.900;2022-07-21T13:03:08;23.67;;;15.20;;
20095;SDS011;10207;50.942;6.900;2022-07-21T13:05:35;17.25;;;14.07;;
20095;SDS011;10207;50.942;6.900;2022-07-21T13:08:01;22.48;;;15.13;;
20095;SDS011;10207;50.942;6.900;2022-07-21T13:10:26;25.38;;;16.02;;
20095;SDS011;10207;50.942;6.900;2022-07-21T13:12:52;21.10;;;15.40;;
20095;SDS011;10207;50.942;6.900;2022-07-21T13:15:18;18.98;;;14.85;;
20095;SDS011;10207;50.942;6.900;2022-07-21T13:17:44;20.67;;;14.50;;
20095;SDS011;10207;50.942;6.900;2022-07-21T13:20:10;22.65;;;15.32;;
20095;SDS011;10207;50.942;6.900;2022-07-21T13:22:36;26.42;;;14.95;;
20095;SDS011;10207;50.942;6.900;2022-07-21T13:25:02;19.95;;;16.40;;
20095;SDS011;10207;50.942;6.900;2022-07-21T13:27:28;22.48;;;16.75;;
20095;SDS011;10207;50.942;6.900;2022-07-21T13:29:54;21.55;;;16.00;;
20095;SDS011;10207;50.942;6.900;2022-07-21T13:32:20;22.75;;;16.90;;
20095;SDS011;10207;50.942;6.900;2022-07-21T13:34:45;24.67;;;16.95;;
20095;SDS011;10207;50.942;6.900;2022-07-21T13:37:11;24.30;;;17.42;;
20095;SDS011;10207;50.942;6.900;2022-07-21T13:39:38;22.33;;;17.00;;
20095;SDS011;10207;50.942;6.900;2022-07-21T13:42:05;25.77;;;17.10;;
20095;SDS011;10207;50.942;6.900;2022-07-21T13:44:30;19.38;;;14.93;;
20095;SDS011;10207;50.942;6.900;2022-07-21T13:46:57;20.92;;;13.98;;
20095;SDS011;10207;50.942;6.900;2022-07-21T13:49:23;15.55;;;11.30;;
20095;SDS011;10207;50.942;6.900;2022-07-21T13:51:49;16.48;;;10.50;;
20095;SDS011;10207;50.942;6.900;2022-07-21T13:54:15;14.13;;;9.68;;
20095;SDS011;10207;50.942;6.900;2022-07-21T13:56:40;12.05;;;8.45;;
20095;SDS011;10207;50.942;6.900;2022-07-21T13:59:06;12.00;;;8.02;;
20095;SDS011;10207;50.942;6.900;2022-07-21T14:01:32;12.40;;;9.05;;
20095;SDS011;10207;50.942;6.900;2022-07-21T14:03:58;11.15;;;8.38;;
20095;SDS011;10207;50.942;6.900;2022-07-21T14:06:24;11.77;;;8.27;;
20095;SDS011;10207;50.942;6.900;2022-07-21T14:08:50;11.60;;;8.07;;
20095;SDS011;10207;50.942;6.900;2022-07-21T14:11:16;10.10;;;8.48;;
20095;SDS011;10207;50.942;6.900;2022-07-21T14:13:42;12.48;;;8.57;;
20095;SDS011;10207;50.942;6.900;2022-07-21T14:16:08;11.68;;;8.85;;
20095;SDS011;10207;50.942;6.900;2022-07-21T14:18:33;13.65;;;8.23;;
20095;SDS011;10207;50.942;6.900;2022-07-21T14:21:00;13.70;;;8.77;;
20095;SDS011;10207;50.942;6.900;2022-07-21T14:23:25;15.05;;;9.18;;
20095;SDS011;10207;50.942;6.900;2022-07-21T14:25:51;12.98;;;9.25;;
20095;SDS011;10207;50.942;6.900;2022-07-21T14:28:17;12.18;;;9.63;;
20095;SDS011;10207;50.942;6.900;2022-07-21T14:30:43;12.07;;;9.23;;
20095;SDS011;10207;50.942;6.900;2022-07-21T14:33:09;13.73;;;9.48;;
20095;SDS011;10207;50.942;6.900;2022-07-21T14:35:35;12.75;;;9.40;;
20095;SDS011;10207;50.942;6.900;2022-07-21T14:38:02;11.90;;;9.65;;
20095;SDS011;10207;50.942;6.900;2022-07-21T14:40:28;13.20;;;9.55;;
20095;SDS011;10207;50.942;6.900;2022-07-21T14:42:54;10.43;;;9.27;;
20095;SDS011;10207;50.942;6.900;2022-07-21T14:45:20;14.23;;;10.18;;
20095;SDS011;10207;50.942;6.900;2022-07-21T14:47:46;12.88;;;10.00;;
20095;SDS011;10207;50.942;6.900;2022-07-21T14:50:13;14.48;;;10.20;;
20095;SDS011;10207;50.942;6.900;2022-07-21T14:52:40;12.00;;;8.57;;
20095;SDS011;10207;50.942;6.900;2022-07-21T14:55:06;12.88;;;8.27;;
20095;SDS011;10207;50.942;6.900;2022-07-21T14:57:32;13.18;;;9.15;;
20095;SDS011;10207;50.942;6.900;2022-07-21T14:59:58;11.95;;;7.75;;
20095;SDS011;10207;50.942;6.900;2022-07-21T15:02:24;12.35;;;8.05;;